sensor_id;sensor_type;location;lat;lon;timestamp;P1;durP1;ratioP1;P2;durP2;ratioP2
56752;SDS011;42627;42.646;23.642;2022-08-18T00:00:07;6.07;;;3.60;;
56752;SDS011;42627;42.646;23.642;2022-08-18T00:04:17;5.93;;;3.42;;
56752;SDS011;42627;42.646;23.642;2022-08-18T00:06:18;6.85;;;3.28;;
56752;SDS011;42627;42.646;23.642;2022-08-18T00:08:19;5.85;;;3.35;;
56752;SDS011;42627;42.646;23.642;2022-08-18T00:10:19;7.15;;;3.10;;
56752;SDS011;42627;42.646;23.642;2022-08-18T00:14:42;5.75;;;2.85;;
56752;SDS011;42627;42.646;23.642;2022-08-18T00:16:43;6.00;;;3.05;;
56752;SDS011;42627;42.646;23.642;2022-08-18T00:18:44;6.15;;;3.25;;
56752;SDS011;42627;42.646;23.642;2022-08-18T00:20:44;7.43;;;3.38;;
56752;SDS011;42627;42.646;23.642;2022-08-18T00:22:46;5.85;;;3.20;;
56752;SDS011;42627;42.646;23.642;2022-08-18T00:24:51;6.28;;;3.00;;
56752;SDS011;42627;42.646;23.642;2022-08-18T00:26:53;6.85;;;3.40;;
56752;SDS011;42627;42.646;23.642;2022-08-18T00:28:54;5.95;;;3.58;;
56752;SDS011;42627;42.646;23.642;2022-08-18T00:30:55;5.40;;;2.72;;
56752;SDS011;42627;42.646;23.642;2022-08-18T00:32:57;7.60;;;3.15;;
56752;SDS011;42627;42.646;23.642;2022-08-18T00:35:05;7.88;;;4.38;;
56752;SDS011;42627;42.646;23.642;2022-08-18T00:37:08;5.07;;;2.63;;
56752;SDS011;42627;42.646;23.642;2022-08-18T00:39:09;8.10;;;3.67;;
56752;SDS011;42627;42.646;23.642;2022-08-18T00:41:10;5.45;;;3.10;;
56752;SDS011;42627;42.646;23.642;2022-08-18T00:43:12;6.30;;;2.95;;
56752;SDS011;42627;42.646;23.642;2022-08-18T00:45:22;6.18;;;3.05;;
56752;SDS011;42627;42.646;23.642;2022-08-18T00:47:26;4.93;;;3.25;;
56752;SDS011;42627;42.646;23.642;2022-08-18T00:49:28;5.18;;;2.60;;
56752;SDS011;42627;42.646;23.642;2022-08-18T00:51:32;7.25;;;3.58;;
56752;SDS011;42627;42.646;23.642;2022-08-18T00:53:49;7.10;;;3.10;;
56752;SDS011;42627;42.646;23.642;2022-08-18T00:55:59;6.30;;;3.80;;
56752;SDS011;42627;42.646;23.642;2022-08-18T00:58:09;4.90;;;2.78;;
56752;SDS011;42627;42.646;23.642;2022-08-18T01:00:15;5.00;;;2.42;;
56752;SDS011;42627;42.646;23.642;2022-08-18T01:02:18;5.47;;;2.65;;
56752;SDS011;42627;42.646;23.642;2022-08-18T01:04:24;5.65;;;3.15;;
56752;SDS011;42627;42.646;23.642;2022-08-18T01:06:35;5.50;;;3.10;;
56752;SDS011;42627;42.646;23.642;2022-08-18T01:08:42;4.90;;;2.53;;
56752;SDS011;42627;42.646;23.642;2022-08-18T01:10:43;4.70;;;2.75;;
56752;SDS011;42627;42.646;23.642;2022-08-18T01:12:45;4.97;;;2.92;;
56752;SDS011;42627;42.646;23.642;2022-08-18T01:14:49;5.68;;;3.42;;
56752;SDS011;42627;42.646;23.642;2022-08-18T01:16:50;5.38;;;2.92;;
56752;SDS011;42627;42.646;23.642;2022-08-18T01:19:09;5.05;;;2.80;;
56752;SDS011;42627;42.646;23.642;2022-08-18T01:21:28;5.75;;;3.05;;
56752;SDS011;42627;42.646;23.642;2022-08-18T01:23:51;4.43;;;2.50;;
56752;SDS011;42627;42.646;23.642;2022-08-18T01:25:52;7.82;;;3.50;;
56752;SDS011;42627;42.646;23.642;2022-08-18T01:27:59;5.97;;;3.17;;
56752;SDS011;42627;42.646;23.642;2022-08-18T01:30:06;7.35;;;3.13;;
56752;SDS011;42627;42.646;23.642;2022-08-18T01:32:10;6.00;;;2.92;;
56752;SDS011;42627;42.646;23.642;2022-08-18T01:34:18;4.88;;;2.78;;
56752;SDS011;42627;42.646;23.642;2022-08-18T01:36:21;5.43;;;3.15;;
56752;SDS011;42627;42.646;23.642;2022-08-18T01:38:22;5.32;;;3.35;;
56752;SDS011;42627;42.646;23.642;2022-08-18T01:40:25;6.43;;;3.35;;
56752;SDS011;42627;42.646;23.642;2022-08-18T01:42:25;6.10;;;3.45;;
56752;SDS011;42627;42.646;23.642;2022-08-18T01:44:26;6.80;;;3.63;;
56752;SDS011;42627;42.646;23.642;2022-08-18T01:46:27;6.93;;;3.53;;
56752;SDS011;42627;42.646;23.642;2022-08-18T01:48:31;4.93;;;3.00;;
56752;SDS011;42627;42.646;23.642;2022-08-18T01:50:36;9.63;;;2.90;;
56752;SDS011;42627;42.646;23.642;2022-08-18T01:52:40;5.78;;;3.10;;
56752;SDS011;42627;42.646;23.642;2022-08-18T01:54:40;5.70;;;2.90;;
56752;SDS011;42627;42.646;23.642;2022-08-18T01:56:42;6.28;;;3.20;;
56752;SDS011;42627;42.646;23.642;2022-08-18T01:58:43;7.30;;;3.05;;
56752;SDS011;42627;42.646;23.642;2022-08-18T02:00:46;5.47;;;2.97;;
56752;SDS011;42627;42.646;23.642;2022-08-18T02:02:47;7.07;;;3.47;;
56752;SDS011;42627;42.646;23.642;2022-08-18T02:04:51;6.30;;;2.88;;
56752;SDS011;42627;42.646;23.642;2022-08-18T02:06:54;5.97;;;3.17;;
56752;SDS011;42627;42.646;23.642;2022-08-18T02:08:55;5.03;;;3.05;;
56752;SDS011;42627;42.646;23.642;2022-08-18T02:10:55;8.77;;;3.25;;
56752;SDS011;42627;42.646;23.642;2022-08-18T02:12:57;7.28;;;2.97;;
56752;SDS011;42627;42.646;23.642;2022-08-18T02:14:58;8.00;;;3.03;;
56752;SDS011;42627;42.646;23.642;2022-08-18T02:16:59;6.03;;;3.00;;
56752;SDS011;42627;42.646;23.642;2022-08-18T02:19:01;5.63;;;3.33;;
56752;SDS011;42627;42.646;23.642;2022-08-18T02:21:07;5.35;;;2.95;;
56752;SDS011;42627;42.646;23.642;2022-08-18T02:23:10;5.72;;;3.45;;
56752;SDS011;42627;42.646;23.642;2022-08-18T02:25:12;5.78;;;3.63;;
56752;SDS011;42627;42.646;23.642;2022-08-18T02:27:13;8.80;;;3.40;;
56752;SDS011;42627;42.646;23.642;2022-08-18T02:29:15;6.72;;;3.50;;
56752;SDS011;42627;42.646;23.642;2022-08-18T02:31:17;5.68;;;3.30;;
56752;SDS011;42627;42.646;23.642;2022-08-18T02:33:19;5.65;;;3.45;;
56752;SDS011;42627;42.646;23.642;2022-08-18T02:35:20;7.05;;;3.20;;
56752;SDS011;42627;42.646;23.642;2022-08-18T02:37:21;6.45;;;3.35;;
56752;SDS011;42627;42.646;23.642;2022-08-18T02:39:22;7.85;;;2.90;;
56752;SDS011;42627;42.646;23.642;2022-08-18T02:41:22;6.22;;;3.00;;
56752;SDS011;42627;42.646;23.642;2022-08-18T02:43:25;4.53;;;2.65;;
56752;SDS011;42627;42.646;23.642;2022-08-18T02:45:27;5.75;;;3.45;;
56752;SDS011;42627;42.646;23.642;2022-08-18T02:47:27;4.80;;;2.63;;
56752;SDS011;42627;42.646;23.642;2022-08-18T02:49:28;5.63;;;3.03;;
56752;SDS011;42627;42.646;23.642;2022-08-18T02:51:29;7.60;;;2.67;;
56752;SDS011;42627;42.646;23.642;2022-08-18T02:53:30;5.43;;;2.83;;
56752;SDS011;42627;42.646;23.642;2022-08-18T02:55:31;6.03;;;3.47;;
56752;SDS011;42627;42.646;23.642;2022-08-18T02:57:32;4.82;;;2.83;;
56752;SDS011;42627;42.646;23.642;2022-08-18T02:59:32;8.35;;;3.17;;
56752;SDS011;42627;42.646;23.642;2022-08-18T03:01:34;5.47;;;3.08;;
56752;SDS011;42627;42.646;23.642;2022-08-18T03:03:37;5.20;;;2.70;;
56752;SDS011;42627;42.646;23.642;2022-08-18T03:05:38;5.18;;;2.92;;
56752;SDS011;42627;42.646;23.642;2022-08-18T03:07:39;7.15;;;3.40;;
56752;SDS011;42627;42.646;23.642;2022-08-18T03:09:40;6.93;;;2.83;;
56752;SDS011;42627;42.646;23.642;2022-08-18T03:11:41;5.93;;;2.55;;
56752;SDS011;42627;42.646;23.642;2022-08-18T03:13:42;6.72;;;3.10;;
56752;SDS011;42627;42.646;23.642;2022-08-18T03:15:43;5.70;;;3.17;;
56752;SDS011;42627;42.646;23.642;2022-08-18T03:17:43;6.38;;;3.70;;
56752;SDS011;42627;42.646;23.642;2022-08-18T03:19:45;8.77;;;3.63;;
56752;SDS011;42627;42.646;23.642;2022-08-18T03:21:46;7.97;;;3.42;;
56752;SDS011;42627;42.646;23.642;2022-08-18T03:23:47;5.88;;;3.00;;
56752;SDS011;42627;42.646;23.642;2022-08-18T03:25:50;6.50;;;2.85;;
56752;SDS011;42627;42.646;23.642;2022-08-18T03:27:50;7.82;;;2.97;;
56752;SDS011;42627;42.646;23.642;2022-08-18T03:29:51;5.57;;;3.38;;
56752;SDS011;42627;42.646;23.642;2022-08-18T03:31:52;8.05;;;3.55;;
56752;SDS011;42627;42.646;23.642;2022-08-18T03:33:53;4.70;;;3.17;;
56752;SDS011;42627;42.646;23.642;2022-08-18T03:35:55;6.72;;;3.55;;
56752;SDS011;42627;42.646;23.642;2022-08-18T03:38:02;7.22;;;3.60;;
56752;SDS011;42627;42.646;23.642;2022-08-18T03:40:03;7.63;;;3.38;;
56752;SDS011;42627;42.646;23.642;2022-08-18T03:42:04;6.03;;;3.35;;
56752;SDS011;42627;42.646;23.642;2022-08-18T03:44:05;5.72;;;3.20;;
56752;SDS011;42627;42.646;23.642;2022-08-18T03:46:27;5.72;;;3.42;;
56752;SDS011;42627;42.646;23.642;2022-08-18T03:48:28;10.20;;;3.90;;
56752;SDS011;42627;42.646;23.642;2022-08-18T03:50:29;5.35;;;3.25;;
56752;SDS011;42627;42.646;23.642;2022-08-18T03:52:31;6.80;;;3.22;;
56752;SDS011;42627;42.646;23.642;2022-08-18T03:54:31;5.40;;;3.35;;
56752;SDS011;42627;42.646;23.642;2022-08-18T03:56:34;7.03;;;3.75;;
56752;SDS011;42627;42.646;23.642;2022-08-18T03:58:37;7.18;;;3.03;;
56752;SDS011;42627;42.646;23.642;2022-08-18T04:00:37;6.15;;;3.20;;
56752;SDS011;42627;42.646;23.642;2022-08-18T04:02:39;5.32;;;3.47;;
56752;SDS011;42627;42.646;23.642;2022-08-18T04:04:39;7.88;;;3.40;;
56752;SDS011;42627;42.646;23.642;2022-08-18T04:06:42;7.00;;;3.58;;
56752;SDS011;42627;42.646;23.642;2022-08-18T04:08:51;6.05;;;3.35;;
56752;SDS011;42627;42.646;23.642;2022-08-18T04:10:52;5.55;;;3.20;;
56752;SDS011;42627;42.646;23.642;2022-08-18T04:12:53;6.90;;;3.42;;
56752;SDS011;42627;42.646;23.642;2022-08-18T04:14:54;5.22;;;2.80;;
56752;SDS011;42627;42.646;23.642;2022-08-18T04:16:54;6.55;;;3.45;;
56752;SDS011;42627;42.646;23.642;2022-08-18T04:18:56;5.43;;;3.03;;
56752;SDS011;42627;42.646;23.642;2022-08-18T04:21:03;9.93;;;3.20;;
56752;SDS011;42627;42.646;23.642;2022-08-18T04:23:06;7.10;;;3.22;;
56752;SDS011;42627;42.646;23.642;2022-08-18T04:25:07;7.18;;;3.70;;
56752;SDS011;42627;42.646;23.642;2022-08-18T04:27:08;6.05;;;3.33;;
56752;SDS011;42627;42.646;23.642;2022-08-18T04:29:09;8.27;;;3.42;;
56752;SDS011;42627;42.646;23.642;2022-08-18T04:31:12;5.50;;;3.25;;
56752;SDS011;42627;42.646;23.642;2022-08-18T04:33:13;6.20;;;3.03;;
56752;SDS011;42627;42.646;23.642;2022-08-18T04:35:14;6.97;;;3.40;;
56752;SDS011;42627;42.646;23.642;2022-08-18T04:37:15;6.38;;;3.03;;
56752;SDS011;42627;42.646;23.642;2022-08-18T04:39:16;8.95;;;4.03;;
56752;SDS011;42627;42.646;23.642;2022-08-18T04:41:17;5.60;;;3.28;;
56752;SDS011;42627;42.646;23.642;2022-08-18T04:43:18;5.43;;;3.13;;
56752;SDS011;42627;42.646;23.642;2022-08-18T04:45:19;5.63;;;3.05;;
56752;SDS011;42627;42.646;23.642;2022-08-18T04:47:20;5.32;;;2.80;;
56752;SDS011;42627;42.646;23.642;2022-08-18T04:49:23;6.53;;;2.78;;
56752;SDS011;42627;42.646;23.642;2022-08-18T04:51:25;6.45;;;3.75;;
56752;SDS011;42627;42.646;23.642;2022-08-18T04:53:27;5.30;;;3.05;;
56752;SDS011;42627;42.646;23.642;2022-08-18T04:55:50;7.45;;;3.72;;
56752;SDS011;42627;42.646;23.642;2022-08-18T04:59:52;6.20;;;3.50;;
56752;SDS011;42627;42.646;23.642;2022-08-18T05:01:53;7.10;;;3.80;;
56752;SDS011;42627;42.646;23.642;2022-08-18T05:03:54;9.00;;;4.45;;
56752;SDS011;42627;42.646;23.642;2022-08-18T05:05:56;6.85;;;4.03;;
56752;SDS011;42627;42.646;23.642;2022-08-18T05:07:58;8.63;;;4.15;;
56752;SDS011;42627;42.646;23.642;2022-08-18T05:09:59;7.90;;;4.10;;
56752;SDS011;42627;42.646;23.642;2022-08-18T05:12:00;6.20;;;3.65;;
56752;SDS011;42627;42.646;23.642;2022-08-18T05:14:06;7.30;;;3.65;;
56752;SDS011;42627;42.646;23.642;2022-08-18T05:16:07;6.78;;;3.85;;
56752;SDS011;42627;42.646;23.642;2022-08-18T05:18:09;7.85;;;3.72;;
56752;SDS011;42627;42.646;23.642;2022-08-18T05:20:10;9.32;;;4.55;;
56752;SDS011;42627;42.646;23.642;2022-08-18T05:22:11;7.80;;;3.88;;
56752;SDS011;42627;42.646;23.642;2022-08-18T05:24:19;9.32;;;4.03;;
56752;SDS011;42627;42.646;23.642;2022-08-18T05:26:21;8.70;;;5.38;;
56752;SDS011;42627;42.646;23.642;2022-08-18T05:28:21;7.82;;;3.95;;
56752;SDS011;42627;42.646;23.642;2022-08-18T05:30:22;6.78;;;3.72;;
56752;SDS011;42627;42.646;23.642;2022-08-18T05:32:23;9.05;;;3.63;;
56752;SDS011;42627;42.646;23.642;2022-08-18T05:34:23;9.80;;;4.75;;
56752;SDS011;42627;42.646;23.642;2022-08-18T05:41:45;6.18;;;3.47;;
56752;SDS011;42627;42.646;23.642;2022-08-18T05:43:28;10.98;;;4.80;;
56752;SDS011;42627;42.646;23.642;2022-08-18T05:45:29;8.65;;;4.88;;
56752;SDS011;42627;42.646;23.642;2022-08-18T05:47:31;7.50;;;4.30;;
56752;SDS011;42627;42.646;23.642;2022-08-18T05:49:32;7.53;;;4.18;;
56752;SDS011;42627;42.646;23.642;2022-08-18T05:51:37;7.85;;;3.97;;
56752;SDS011;42627;42.646;23.642;2022-08-18T05:53:41;8.65;;;4.10;;
56752;SDS011;42627;42.646;23.642;2022-08-18T05:56:02;7.95;;;4.88;;
56752;SDS011;42627;42.646;23.642;2022-08-18T05:58:43;11.23;;;5.63;;
56752;SDS011;42627;42.646;23.642;2022-08-18T06:00:53;8.10;;;4.28;;
56752;SDS011;42627;42.646;23.642;2022-08-18T06:03:12;8.10;;;4.63;;
56752;SDS011;42627;42.646;23.642;2022-08-18T06:07:32;8.18;;;4.13;;
56752;SDS011;42627;42.646;23.642;2022-08-18T06:09:54;7.65;;;4.32;;
56752;SDS011;42627;42.646;23.642;2022-08-18T06:12:02;6.80;;;4.45;;
56752;SDS011;42627;42.646;23.642;2022-08-18T06:14:49;8.85;;;4.18;;
56752;SDS011;42627;42.646;23.642;2022-08-18T06:20:05;7.45;;;4.03;;
56752;SDS011;42627;42.646;23.642;2022-08-18T06:22:35;7.32;;;4.03;;
56752;SDS011;42627;42.646;23.642;2022-08-18T06:30:41;8.65;;;3.88;;
56752;SDS011;42627;42.646;23.642;2022-08-18T06:33:15;7.07;;;4.13;;
56752;SDS011;42627;42.646;23.642;2022-08-18T06:35:54;6.70;;;4.30;;
56752;SDS011;42627;42.646;23.642;2022-08-18T06:40:55;6.53;;;4.13;;
56752;SDS011;42627;42.646;23.642;2022-08-18T06:43:42;9.48;;;4.28;;
56752;SDS011;42627;42.646;23.642;2022-08-18T06:49:08;6.45;;;3.88;;
56752;SDS011;42627;42.646;23.642;2022-08-18T06:51:47;9.43;;;3.67;;
56752;SDS011;42627;42.646;23.642;2022-08-18T06:54:04;5.40;;;3.50;;
56752;SDS011;42627;42.646;23.642;2022-08-18T07:01:46;6.40;;;3.88;;
56752;SDS011;42627;42.646;23.642;2022-08-18T07:07:36;7.65;;;3.38;;
56752;SDS011;42627;42.646;23.642;2022-08-18T07:09:57;5.95;;;3.35;;
56752;SDS011;42627;42.646;23.642;2022-08-18T07:12:00;7.30;;;3.95;;
56752;SDS011;42627;42.646;23.642;2022-08-18T07:14:19;7.18;;;4.13;;
56752;SDS011;42627;42.646;23.642;2022-08-18T07:18:28;7.07;;;4.07;;
56752;SDS011;42627;42.646;23.642;2022-08-18T07:20:29;6.80;;;3.63;;
56752;SDS011;42627;42.646;23.642;2022-08-18T07:22:30;5.70;;;3.83;;
56752;SDS011;42627;42.646;23.642;2022-08-18T07:24:33;5.97;;;3.97;;
56752;SDS011;42627;42.646;23.642;2022-08-18T07:26:57;6.70;;;3.58;;
56752;SDS011;42627;42.646;23.642;2022-08-18T07:29:11;7.13;;;3.85;;
56752;SDS011;42627;42.646;23.642;2022-08-18T07:36:17;5.53;;;3.28;;
56752;SDS011;42627;42.646;23.642;2022-08-18T07:38:28;7.32;;;3.88;;
56752;SDS011;42627;42.646;23.642;2022-08-18T07:41:20;5.40;;;3.03;;
56752;SDS011;42627;42.646;23.642;2022-08-18T07:43:45;4.82;;;3.28;;
56752;SDS011;42627;42.646;23.642;2022-08-18T07:46:07;6.68;;;3.63;;
56752;SDS011;42627;42.646;23.642;2022-08-18T07:49:09;5.28;;;3.45;;
56752;SDS011;42627;42.646;23.642;2022-08-18T07:55:43;6.72;;;3.35;;
56752;SDS011;42627;42.646;23.642;2022-08-18T08:03:58;6.25;;;3.78;;
56752;SDS011;42627;42.646;23.642;2022-08-18T08:08:48;6.07;;;3.88;;
56752;SDS011;42627;42.646;23.642;2022-08-18T08:20:43;6.55;;;2.70;;
56752;SDS011;42627;42.646;23.642;2022-08-18T08:27:55;4.88;;;2.67;;
56752;SDS011;42627;42.646;23.642;2022-08-18T08:30:22;4.32;;;2.78;;
56752;SDS011;42627;42.646;23.642;2022-08-18T08:34:33;4.40;;;2.67;;
56752;SDS011;42627;42.646;23.642;2022-08-18T08:37:11;5.40;;;2.85;;
56752;SDS011;42627;42.646;23.642;2022-08-18T08:39:26;4.78;;;2.90;;
56752;SDS011;42627;42.646;23.642;2022-08-18T08:41:55;4.57;;;2.50;;
56752;SDS011;42627;42.646;23.642;2022-08-18T08:46:36;4.80;;;2.70;;
56752;SDS011;42627;42.646;23.642;2022-08-18T08:48:43;5.20;;;2.42;;
56752;SDS011;42627;42.646;23.642;2022-08-18T08:50:59;4.28;;;2.65;;
56752;SDS011;42627;42.646;23.642;2022-08-18T09:00:18;4.00;;;2.58;;
56752;SDS011;42627;42.646;23.642;2022-08-18T09:02:23;4.10;;;2.38;;
56752;SDS011;42627;42.646;23.642;2022-08-18T09:06:44;5.80;;;2.60;;
56752;SDS011;42627;42.646;23.642;2022-08-18T09:08:54;4.63;;;2.15;;
56752;SDS011;42627;42.646;23.642;2022-08-18T09:17:30;5.88;;;2.40;;
56752;SDS011;42627;42.646;23.642;2022-08-18T09:22:06;4.82;;;2.53;;
56752;SDS011;42627;42.646;23.642;2022-08-18T09:28:39;3.85;;;2.30;;
56752;SDS011;42627;42.646;23.642;2022-08-18T09:33:26;4.47;;;2.30;;
56752;SDS011;42627;42.646;23.642;2022-08-18T09:35:40;4.18;;;2.40;;
56752;SDS011;42627;42.646;23.642;2022-08-18T09:40:18;4.65;;;2.50;;
56752;SDS011;42627;42.646;23.642;2022-08-18T09:42:43;3.60;;;2.10;;
56752;SDS011;42627;42.646;23.642;2022-08-18T09:46:49;3.50;;;2.10;;
56752;SDS011;42627;42.646;23.642;2022-08-18T09:56:57;4.03;;;2.08;;
56752;SDS011;42627;42.646;23.642;2022-08-18T10:02:02;4.00;;;2.35;;
56752;SDS011;42627;42.646;23.642;2022-08-18T10:04:43;4.60;;;2.40;;
56752;SDS011;42627;42.646;23.642;2022-08-18T11:25:44;3.28;;;1.98;;
56752;SDS011;42627;42.646;23.642;2022-08-18T11:27:50;4.85;;;2.80;;
56752;SDS011;42627;42.646;23.642;2022-08-18T11:32:49;3.63;;;2.20;;
56752;SDS011;42627;42.646;23.642;2022-08-18T11:34:51;3.63;;;2.10;;
56752;SDS011;42627;42.646;23.642;2022-08-18T11:36:54;4.35;;;1.98;;
56752;SDS011;42627;42.646;23.642;2022-08-18T11:38:56;4.25;;;2.42;;
56752;SDS011;42627;42.646;23.642;2022-08-18T11:41:17;4.00;;;2.05;;
56752;SDS011;42627;42.646;23.642;2022-08-18T11:43:22;3.58;;;1.88;;
56752;SDS011;42627;42.646;23.642;2022-08-18T11:45:24;5.40;;;1.85;;
56752;SDS011;42627;42.646;23.642;2022-08-18T11:47:32;5.55;;;1.90;;
56752;SDS011;42627;42.646;23.642;2022-08-18T11:49:56;3.75;;;2.00;;
56752;SDS011;42627;42.646;23.642;2022-08-18T11:54:46;3.88;;;2.22;;
56752;SDS011;42627;42.646;23.642;2022-08-18T11:57:37;5.10;;;2.13;;
56752;SDS011;42627;42.646;23.642;2022-08-18T11:59:58;4.30;;;2.00;;
56752;SDS011;42627;42.646;23.642;2022-08-18T12:05:20;3.80;;;1.88;;
56752;SDS011;42627;42.646;23.642;2022-08-18T12:07:39;4.22;;;2.25;;
56752;SDS011;42627;42.646;23.642;2022-08-18T12:14:18;5.32;;;1.80;;
56752;SDS011;42627;42.646;23.642;2022-08-18T12:16:30;3.88;;;2.13;;
56752;SDS011;42627;42.646;23.642;2022-08-18T12:21:06;4.00;;;2.28;;
56752;SDS011;42627;42.646;23.642;2022-08-18T12:23:10;3.40;;;1.70;;
56752;SDS011;42627;42.646;23.642;2022-08-18T12:25:35;3.97;;;2.03;;
56752;SDS011;42627;42.646;23.642;2022-08-18T12:32:58;3.35;;;1.73;;
56752;SDS011;42627;42.646;23.642;2022-08-18T12:35:10;2.58;;;1.60;;
56752;SDS011;42627;42.646;23.642;2022-08-18T12:37:26;4.07;;;2.08;;
56752;SDS011;42627;42.646;23.642;2022-08-18T12:39:33;3.17;;;2.08;;
56752;SDS011;42627;42.646;23.642;2022-08-18T12:41:34;4.85;;;2.13;;
56752;SDS011;42627;42.646;23.642;2022-08-18T12:43:46;4.63;;;2.30;;
56752;SDS011;42627;42.646;23.642;2022-08-18T12:46:04;4.35;;;2.38;;
56752;SDS011;42627;42.646;23.642;2022-08-18T12:50:39;3.63;;;2.05;;
